Time;durP1;ratioP1;P1;durP2;ratioP2;P2;SDS_P1;SDS_P2;PMS_P1;PMS_P2;Temp;Humidity;BMP_temperature;BMP_pressure;BME280_temperature;BME280_humidity;BME280_pressure;Samples;Min_cycle;Max_cycle;Signal;HPM_P1;HPM_P2
2023/12/30 00:03:45;;;;;;;0.82;0.32;;;;;;;9.29;100.00;97642.69;15276389;19;20035;-65
2023/12/30 00:09:11;;;;;;;0.40;0.30;;;;;;;9.31;100.00;97672.94;15270994;19;20110;-64
2023/12/30 00:14:38;;;;;;;0.57;0.30;;;;;;;9.31;100.00;97643.34;15279609;19;20023;-65
2023/12/30 00:20:03;;;;;;;0.60;0.25;;;;;;;9.31;100.00;97652.25;15269847;19;20435;-64
2023/12/30 00:25:27;;;;;;;0.47;0.30;;;;;;;9.42;100.00;97656.44;15277620;19;20010;-64
2023/12/30 00:31:02;;;;;;;0.35;0.30;;;;;;;9.44;100.00;97657.09;15275779;19;20523;-64
2023/12/30 00:36:27;;;;;;;1.02;0.45;;;;;;;9.42;100.00;97680.63;15273114;19;20021;-64
2023/12/30 00:41:52;;;;;;;2.45;0.40;;;;;;;9.19;100.00;97699.31;15275313;19;20464;-63
2023/12/30 00:47:21;;;;;;;0.20;0.20;;;;;;;8.64;100.00;97685.59;15273697;19;20015;-65
2023/12/30 00:52:46;;;;;;;1.08;0.40;;;;;;;8.24;100.00;97697.91;15270141;19;20025;-64
2023/12/30 00:58:11;;;;;;;0.38;0.28;;;;;;;8.11;100.00;97688.50;15277482;19;20034;-64
2023/12/30 01:03:38;;;;;;;0.75;0.30;;;;;;;8.04;100.00;97687.47;15275388;19;20018;-64
2023/12/30 01:09:03;;;;;;;1.00;0.40;;;;;;;7.96;100.00;97700.84;15272388;19;20021;-64
2023/12/30 01:14:28;;;;;;;0.73;0.30;;;;;;;7.97;100.00;97700.69;15282237;19;20010;-64
2023/12/30 01:19:57;;;;;;;0.43;0.30;;;;;;;7.86;100.00;97695.63;15282222;19;20018;-64
2023/12/30 01:25:23;;;;;;;0.10;0.10;;;;;;;7.73;100.00;97688.03;15291571;19;20054;-64
2023/12/30 01:30:48;;;;;;;0.75;0.28;;;;;;;7.72;100.00;97695.22;15285513;19;20466;-64
2023/12/30 01:36:16;;;;;;;0.32;0.30;;;;;;;7.71;100.00;97676.63;15289450;19;20494;-64
2023/12/30 01:41:41;;;;;;;0.75;0.30;;;;;;;7.72;100.00;97689.03;15284000;19;20042;-64
2023/12/30 01:47:07;;;;;;;0.20;0.20;;;;;;;7.67;100.00;97702.94;15322651;19;20022;-65
2023/12/30 01:52:37;;;;;;;0.35;0.13;;;;;;;7.58;100.00;97703.88;15280207;19;20022;-65
2023/12/30 01:58:02;;;;;;;0.55;0.22;;;;;;;7.55;100.00;97714.94;15284656;19;20038;-65
2023/12/30 02:03:27;;;;;;;0.93;0.10;;;;;;;7.50;100.00;97701.16;15281109;19;20053;-65
2023/12/30 02:08:55;;;;;;;0.30;0.30;;;;;;;7.48;100.00;97711.19;15279095;19;20015;-64
2023/12/30 02:14:25;;;;;;;0.73;0.30;;;;;;;7.49;100.00;97720.91;15280096;19;20014;-64
2023/12/30 02:19:50;;;;;;;1.40;0.30;;;;;;;7.49;100.00;97707.50;15281941;19;20502;-65
2023/12/30 02:25:18;;;;;;;1.45;0.35;;;;;;;7.48;100.00;97698.63;15278579;19;20074;-64
2023/12/30 02:30:50;;;;;;;0.30;0.20;;;;;;;7.49;100.00;97704.81;15278076;19;20416;-64
2023/12/30 02:36:16;;;;;;;0.63;0.40;;;;;;;7.58;100.00;97713.75;15282968;19;20861;-64
2023/12/30 02:41:44;;;;;;;1.17;0.40;;;;;;;7.69;100.00;97726.88;15272137;19;20586;-64
2023/12/30 02:47:09;;;;;;;3.38;0.43;;;;;;;7.69;100.00;97737.59;15280711;19;20471;-65
2023/12/30 02:52:33;;;;;;;0.57;0.35;;;;;;;7.51;100.00;97743.03;15273411;19;20082;-64
2023/12/30 02:58:01;;;;;;;1.38;0.40;;;;;;;7.28;100.00;97746.25;15280049;19;20547;-65
2023/12/30 03:03:25;;;;;;;1.92;0.55;;;;;;;7.16;100.00;97764.44;15279128;19;20718;-66
2023/12/30 03:08:50;;;;;;;2.08;0.60;;;;;;;7.06;100.00;97767.19;15276270;19;20018;-65
2023/12/30 03:14:17;;;;;;;3.92;1.00;;;;;;;7.03;100.00;97796.13;15274711;19;20010;-65
2023/12/30 03:19:44;;;;;;;1.98;0.70;;;;;;;6.86;100.00;97795.97;15272978;19;20722;-65
2023/12/30 03:25:09;;;;;;;1.65;0.65;;;;;;;6.76;100.00;97820.13;15280302;19;20018;-65
2023/12/30 03:30:38;;;;;;;1.95;0.77;;;;;;;6.66;100.00;97845.28;15277037;19;20037;-65
2023/12/30 03:36:09;;;;;;;1.58;0.60;;;;;;;6.67;100.00;97850.47;15271448;19;20475;-66
2023/12/30 03:41:34;;;;;;;2.45;0.65;;;;;;;6.68;100.00;97841.47;15270828;19;20523;-65
2023/12/30 03:47:01;;;;;;;2.00;0.52;;;;;;;6.70;100.00;97838.66;15265835;19;20025;-65
2023/12/30 03:52:26;;;;;;;1.10;0.50;;;;;;;6.70;100.00;97849.34;15265781;19;20476;-64
2023/12/30 03:57:52;;;;;;;1.15;0.50;;;;;;;6.76;100.00;97851.41;15274258;19;20086;-64
2023/12/30 04:03:21;;;;;;;2.42;0.63;;;;;;;6.84;100.00;97842.63;15271591;19;20356;-65
2023/12/30 04:08:46;;;;;;;1.35;0.50;;;;;;;6.92;100.00;97853.41;15271695;19;20057;-65
2023/12/30 04:14:11;;;;;;;1.50;0.50;;;;;;;7.04;100.00;97872.78;15272689;19;20022;-64
2023/12/30 04:19:38;;;;;;;2.78;0.60;;;;;;;7.21;100.00;97873.78;15261866;19;20022;-64
2023/12/30 04:25:05;;;;;;;2.13;0.65;;;;;;;7.25;100.00;97861.75;15273034;19;20014;-64
2023/12/30 04:30:30;;;;;;;2.50;0.70;;;;;;;7.20;100.00;97869.44;15271276;19;20019;-63
2023/12/30 04:36:05;;;;;;;2.67;0.52;;;;;;;7.24;100.00;97858.25;15271391;19;20364;-64
2023/12/30 04:41:31;;;;;;;1.33;0.60;;;;;;;7.22;100.00;97856.72;15262357;19;20019;-65
2023/12/30 04:46:56;;;;;;;2.40;0.60;;;;;;;7.22;100.00;97870.13;15274866;19;20045;-64
2023/12/30 04:52:24;;;;;;;2.65;0.60;;;;;;;7.26;100.00;97866.13;15273400;19;20030;-64
2023/12/30 04:57:49;;;;;;;0.95;0.45;;;;;;;7.22;100.00;97875.47;15286478;19;20585;-64
2023/12/30 05:03:16;;;;;;;1.70;0.50;;;;;;;7.14;100.00;97878.06;15029543;19;5001262;-64
2023/12/30 05:08:44;;;;;;;0.98;0.50;;;;;;;7.05;100.00;97893.22;15285178;19;20586;-63
2023/12/30 05:14:09;;;;;;;1.60;0.50;;;;;;;6.98;100.00;97917.09;15288519;19;20011;-64
2023/12/30 05:19:33;;;;;;;2.30;0.50;;;;;;;7.00;100.00;97957.94;15280203;19;20787;-63
2023/12/30 05:25:01;;;;;;;2.30;0.70;;;;;;;6.05;100.00;97925.97;15281582;19;20034;-65
2023/12/30 05:30:28;;;;;;;1.77;0.50;;;;;;;5.45;100.00;97924.34;15285442;19;20029;-65
2023/12/30 05:36:00;;;;;;;1.27;0.50;;;;;;;5.34;100.00;97977.91;15282598;19;20025;-65
2023/12/30 05:41:28;;;;;;;0.73;0.27;;;;;;;5.21;100.00;97988.81;15284180;19;20021;-66
2023/12/30 05:46:53;;;;;;;2.22;0.47;;;;;;;5.16;100.00;97994.59;15279079;19;20018;-63
2023/12/30 05:52:18;;;;;;;0.80;0.40;;;;;;;5.16;100.00;98012.44;15271556;19;20066;-66
2023/12/30 05:57:45;;;;;;;0.50;0.40;;;;;;;5.17;100.00;98019.47;15274507;19;20018;-64
2023/12/30 06:03:11;;;;;;;3.33;0.60;;;;;;;5.22;100.00;98030.56;15275493;19;20026;-65
2023/12/30 06:08:35;;;;;;;3.67;0.50;;;;;;;5.22;100.00;98039.44;15277878;19;20078;-64
2023/12/30 06:14:03;;;;;;;2.95;0.70;;;;;;;5.22;100.00;98041.25;15278510;19;20015;-62
2023/12/30 06:19:27;;;;;;;1.08;0.50;;;;;;;5.20;100.00;98060.09;15271834;19;20522;-65
2023/12/30 06:24:46;;;;;;;3.33;0.60;;;;;;;5.18;100.00;98066.53;15279434;19;20353;-62
2023/12/30 06:30:15;;;;;;;1.52;0.50;;;;;;;5.17;100.00;98070.22;15270935;19;20025;-63
2023/12/30 06:35:40;;;;;;;0.95;0.50;;;;;;;5.17;100.00;98097.75;15274651;19;20268;-65
2023/12/30 06:41:08;;;;;;;3.45;0.75;;;;;;;5.22;100.00;98079.50;15275647;19;20479;-63
2023/12/30 06:46:36;;;;;;;1.95;0.80;;;;;;;5.27;100.00;98092.44;15277017;19;20363;-64
2023/12/30 06:52:01;;;;;;;2.08;0.70;;;;;;;5.32;100.00;98110.75;15267225;19;20019;-63
2023/12/30 06:57:25;;;;;;;2.25;0.65;;;;;;;5.41;100.00;98093.88;15276086;19;20025;-63
2023/12/30 07:02:54;;;;;;;2.38;0.73;;;;;;;5.48;100.00;98089.69;15266197;19;20018;-63
2023/12/30 07:08:19;;;;;;;2.65;0.60;;;;;;;5.51;100.00;98121.47;15273292;19;20038;-61
2023/12/30 07:13:44;;;;;;;1.85;0.50;;;;;;;5.52;100.00;98122.34;15268441;19;20018;-62
2023/12/30 07:19:11;;;;;;;2.83;0.60;;;;;;;5.49;100.00;98127.94;15275025;19;20052;-63
2023/12/30 07:24:37;;;;;;;2.28;0.50;;;;;;;5.47;100.00;98157.44;15277556;19;20031;-63
2023/12/30 07:30:02;;;;;;;0.90;0.47;;;;;;;5.47;100.00;98168.13;15269424;19;20014;-62
2023/12/30 07:35:30;;;;;;;0.85;0.40;;;;;;;5.41;100.00;98174.03;15264738;19;20373;-63
2023/12/30 07:40:55;;;;;;;2.13;0.60;;;;;;;5.35;100.00;98175.41;15264583;19;20018;-63
2023/12/30 07:46:23;;;;;;;0.63;0.47;;;;;;;5.33;100.00;98179.22;15266938;19;20046;-62
2023/12/30 07:51:51;;;;;;;1.25;0.63;;;;;;;5.32;100.00;98193.56;15262764;19;20018;-62
2023/12/30 07:57:18;;;;;;;1.60;0.50;;;;;;;5.35;100.00;98203.97;15277836;19;20021;-62
2023/12/30 08:02:44;;;;;;;1.83;0.70;;;;;;;5.37;100.00;98212.69;15268017;19;20379;-63
2023/12/30 08:08:12;;;;;;;2.65;0.70;;;;;;;5.43;100.00;98228.19;15270813;19;20050;-63
2023/12/30 08:13:36;;;;;;;2.17;0.70;;;;;;;5.50;100.00;98248.03;15267763;19;20015;-62
2023/12/30 08:19:02;;;;;;;1.67;0.70;;;;;;;5.58;100.00;98243.88;15273651;19;20015;-62
2023/12/30 08:24:30;;;;;;;2.00;0.77;;;;;;;5.61;100.00;98244.44;15272649;19;20021;-62
2023/12/30 08:29:55;;;;;;;3.33;0.90;;;;;;;5.67;100.00;98251.06;14759567;19;10000135;-62
2023/12/30 08:35:27;;;;;;;3.55;0.90;;;;;;;5.75;100.00;98247.75;15266747;19;20029;-63
2023/12/30 08:40:55;;;;;;;2.40;0.70;;;;;;;5.80;100.00;98232.13;15269997;19;20475;-63
2023/12/30 08:46:20;;;;;;;7.25;1.00;;;;;;;5.90;100.00;98250.88;15270627;19;20015;-62
2023/12/30 08:51:45;;;;;;;3.45;1.00;;;;;;;6.00;100.00;98252.59;15265871;19;20522;-63
2023/12/30 08:57:12;;;;;;;3.22;0.80;;;;;;;6.11;100.00;98261.53;15273013;19;20017;-62
2023/12/30 09:02:38;;;;;;;4.78;0.70;;;;;;;6.26;100.00;98249.44;15261016;19;20033;-64
2023/12/30 09:08:04;;;;;;;2.85;0.90;;;;;;;6.38;100.00;98247.50;15269762;19;20369;-62
2023/12/30 09:13:31;;;;;;;2.55;0.80;;;;;;;6.50;100.00;98223.28;15265812;19;20010;-63
2023/12/30 09:18:56;;;;;;;3.60;0.90;;;;;;;6.53;100.00;98233.69;15271291;19;20547;-63
2023/12/30 09:24:21;;;;;;;3.20;0.80;;;;;;;6.60;100.00;98240.19;15268056;19;20360;-62
2023/12/30 09:29:49;;;;;;;5.13;1.95;;;;;;;6.63;100.00;98245.28;15267677;19;20041;-63
2023/12/30 09:35:13;;;;;;;7.05;2.92;;;;;;;6.66;100.00;98244.13;15270798;19;20025;-62
2023/12/30 09:40:39;;;;;;;4.57;1.65;;;;;;;6.68;100.00;98245.69;15254070;19;20054;-64
2023/12/30 09:46:07;;;;;;;3.65;1.08;;;;;;;6.73;100.00;98243.44;15283760;19;20090;-63
2023/12/30 09:51:31;;;;;;;4.65;1.20;;;;;;;6.79;100.00;98252.72;15269648;19;20026;-62
2023/12/30 09:56:57;;;;;;;5.63;2.22;;;;;;;6.86;100.00;98261.06;15278524;19;20026;-63
2023/12/30 10:02:25;;;;;;;8.77;3.20;;;;;;;6.96;100.00;98267.25;15275572;19;20471;-62
2023/12/30 10:07:50;;;;;;;3.67;1.20;;;;;;;7.06;100.00;98268.06;15281618;19;20536;-63
2023/12/30 10:13:08;;;;;;;3.13;1.00;;;;;;;7.09;100.00;98283.88;15274904;19;20127;-62
2023/12/30 10:18:37;;;;;;;1.98;0.70;;;;;;;7.09;100.00;98294.59;15281530;19;20019;-63
2023/12/30 10:24:04;;;;;;;3.72;1.08;;;;;;;7.07;100.00;98291.19;15279804;19;20500;-63
2023/12/30 10:29:29;;;;;;;4.72;0.93;;;;;;;7.11;100.00;98293.59;15277296;19;20041;-62
2023/12/30 10:35:17;;;;;;;6.63;1.13;;;;;;;7.16;100.00;98283.28;15276919;19;20022;-62
2023/12/30 10:40:43;;;;;;;2.53;0.75;;;;;;;7.27;100.00;98279.63;15269493;19;20046;-63
2023/12/30 10:46:16;;;;;;;2.63;0.70;;;;;;;7.43;100.00;98265.63;15276326;19;20725;-62
2023/12/30 10:51:43;;;;;;;5.22;1.00;;;;;;;7.59;100.00;98273.88;15271843;19;20035;-62
2023/12/30 10:57:15;;;;;;;3.80;0.95;;;;;;;7.59;100.00;98273.88;15279206;19;20022;-61
2023/12/30 11:02:41;;;;;;;3.20;0.90;;;;;;;7.55;100.00;98275.16;15276066;19;20010;-64
2023/12/30 11:08:10;;;;;;;2.25;0.90;;;;;;;7.53;100.00;98280.66;15280721;19;20478;-62
2023/12/30 11:13:38;;;;;;;3.10;0.70;;;;;;;7.57;100.00;98270.50;15272952;19;20011;-62
2023/12/30 11:19:04;;;;;;;2.97;0.75;;;;;;;7.59;100.00;98255.09;15270044;19;20374;-62
2023/12/30 11:24:32;;;;;;;3.17;1.00;;;;;;;7.62;100.00;98251.31;15273706;19;20024;-62
2023/12/30 11:30:03;;;;;;;3.47;0.68;;;;;;;7.65;100.00;98251.84;15274835;19;20031;-62
2023/12/30 11:35:35;;;;;;;3.20;0.93;;;;;;;7.72;100.00;98219.94;15273438;19;20031;-61
2023/12/30 11:41:02;;;;;;;2.20;0.68;;;;;;;7.77;100.00;98204.22;15272102;19;20376;-62
2023/12/30 11:46:27;;;;;;;3.65;0.70;;;;;;;7.76;100.00;98199.03;15276146;19;20020;-62
2023/12/30 11:51:53;;;;;;;3.05;0.80;;;;;;;7.81;100.00;98176.13;15269602;19;20406;-61
2023/12/30 11:57:21;;;;;;;3.40;0.80;;;;;;;7.86;100.00;98205.19;15275321;19;20077;-62
2023/12/30 12:02:45;;;;;;;2.70;0.70;;;;;;;7.90;100.00;98190.47;15268490;19;20045;-62
2023/12/30 12:08:10;;;;;;;2.47;0.70;;;;;;;7.91;100.00;98197.53;15274993;19;20018;-62
2023/12/30 12:13:39;;;;;;;3.10;0.70;;;;;;;7.91;100.00;98192.19;15269001;19;20022;-62
2023/12/30 12:19:05;;;;;;;3.73;0.63;;;;;;;7.94;100.00;98207.94;15274966;19;20018;-62
2023/12/30 12:24:30;;;;;;;2.08;0.68;;;;;;;8.04;100.00;98193.66;15267352;19;20288;-62
2023/12/30 12:29:59;;;;;;;4.10;1.00;;;;;;;8.11;100.00;98192.03;15268798;19;20346;-62
2023/12/30 12:35:24;;;;;;;2.83;0.70;;;;;;;8.11;100.00;98192.03;15269127;19;20019;-62
2023/12/30 12:40:49;;;;;;;2.38;0.75;;;;;;;8.13;100.00;98179.31;15270852;19;20021;-62
2023/12/30 12:46:17;;;;;;;4.30;0.70;;;;;;;8.16;100.00;98173.66;15275262;19;20029;-62
2023/12/30 12:51:44;;;;;;;3.92;1.00;;;;;;;8.16;100.00;98179.03;15264258;19;20019;-62
2023/12/30 12:57:10;;;;;;;3.63;0.90;;;;;;;8.09;100.00;98186.84;15267823;19;20485;-63
2023/12/30 13:02:37;;;;;;;3.03;1.00;;;;;;;8.01;100.00;98192.09;15262803;19;20026;-61
2023/12/30 13:08:03;;;;;;;5.15;0.90;;;;;;;7.86;100.00;98200.66;15272181;19;20010;-62
2023/12/30 13:13:29;;;;;;;3.38;0.80;;;;;;;7.69;100.00;98231.81;15281545;19;20006;-61
2023/12/30 13:18:57;;;;;;;4.07;1.00;;;;;;;7.58;100.00;98207.88;15283115;19;20509;-60
2023/12/30 13:24:22;;;;;;;2.10;0.75;;;;;;;7.51;100.00;98210.28;15287564;19;20021;-61
2023/12/30 13:29:47;;;;;;;2.88;0.73;;;;;;;7.60;100.00;98223.78;15283313;19;20070;-61
2023/12/30 13:35:14;;;;;;;3.90;0.85;;;;;;;7.62;100.00;98217.28;15281561;19;20025;-62
2023/12/30 13:40:39;;;;;;;3.63;1.02;;;;;;;7.61;100.00;98223.63;15284107;19;20090;-61
2023/12/30 13:46:27;;;;;;;4.22;0.90;;;;;;;7.58;100.00;98223.94;15286188;19;20082;-61
2023/12/30 13:51:55;;;;;;;4.53;1.00;;;;;;;7.54;100.00;98241.31;15276489;19;20015;-62
2023/12/30 13:57:24;;;;;;;4.80;0.95;;;;;;;7.56;100.00;98247.38;15282386;19;20010;-63
2023/12/30 14:02:49;;;;;;;3.58;0.93;;;;;;;7.54;100.00;98241.31;15277530;19;20014;-62
2023/12/30 14:08:31;;;;;;;2.67;0.80;;;;;;;7.54;100.00;98228.75;15285460;19;20033;-62
2023/12/30 14:13:58;;;;;;;4.15;0.85;;;;;;;7.56;100.00;98229.44;15291756;19;20049;-62
2023/12/30 14:19:23;;;;;;;2.58;0.88;;;;;;;7.54;100.00;98222.53;15284248;19;20468;-64
2023/12/30 14:24:51;;;;;;;3.80;0.95;;;;;;;7.52;100.00;98213.81;15281161;19;20011;-61
2023/12/30 14:30:16;;;;;;;4.35;1.00;;;;;;;7.45;100.00;98210.03;15275079;19;20348;-63
2023/12/30 14:35:48;;;;;;;4.70;1.10;;;;;;;7.39;100.00;98220.34;15280807;19;20018;-63
2023/12/30 14:41:15;;;;;;;4.70;0.93;;;;;;;7.30;100.00;98215.00;15274097;19;20031;-63
2023/12/30 14:46:41;;;;;;;2.97;0.88;;;;;;;7.19;100.00;98230.25;15284500;19;20298;-63
2023/12/30 14:52:08;;;;;;;3.95;1.13;;;;;;;7.09;100.00;98214.22;15308645;19;20050;-62
2023/12/30 14:57:36;;;;;;;3.65;1.20;;;;;;;7.01;100.00;98223.94;15278297;19;20078;-63
2023/12/30 15:03:00;;;;;;;5.88;1.10;;;;;;;6.91;100.00;98223.97;15269063;19;20029;-63
2023/12/30 15:08:32;;;;;;;3.92;1.13;;;;;;;6.83;100.00;98231.88;15280261;19;20022;-63
2023/12/30 15:14:01;;;;;;;4.47;1.02;;;;;;;6.75;100.00;98233.44;15271923;19;20015;-64
2023/12/30 15:19:26;;;;;;;4.18;1.20;;;;;;;6.72;100.00;98244.41;15276309;19;20014;-63
2023/12/30 15:24:51;;;;;;;4.00;1.20;;;;;;;6.74;100.00;98257.66;15278072;19;20017;-63
2023/12/30 15:30:22;;;;;;;3.65;1.10;;;;;;;6.74;100.00;98263.88;15274991;19;20021;-63
2023/12/30 15:35:53;;;;;;;3.20;1.10;;;;;;;6.75;100.00;98264.69;15265531;19;20077;-63
2023/12/30 15:41:20;;;;;;;3.50;1.10;;;;;;;6.74;100.00;98261.19;15270458;19;20011;-63
2023/12/30 15:46:48;;;;;;;3.25;1.23;;;;;;;6.70;100.00;98277.69;15276864;19;20029;-62
2023/12/30 15:52:13;;;;;;;3.58;1.25;;;;;;;6.67;100.00;98284.13;15273104;19;20039;-62
2023/12/30 15:57:37;;;;;;;2.08;0.93;;;;;;;6.67;100.00;98294.84;15278434;19;20034;-62
2023/12/30 16:03:04;;;;;;;3.40;1.02;;;;;;;6.68;100.00;98285.84;15265926;19;20039;-61
2023/12/30 16:08:33;;;;;;;1.57;0.90;;;;;;;6.73;100.00;98299.66;15269524;19;20262;-63
2023/12/30 16:13:58;;;;;;;4.32;1.30;;;;;;;6.76;100.00;98299.34;15268729;19;20352;-63
2023/12/30 16:19:26;;;;;;;4.40;1.42;;;;;;;6.74;100.00;98296.00;15268827;19;20046;-62
2023/12/30 16:24:53;;;;;;;4.10;1.20;;;;;;;6.69;100.00;98300.91;15269710;19;20091;-63
2023/12/30 16:30:19;;;;;;;5.78;1.63;;;;;;;6.66;100.00;98278.94;15271183;19;20081;-63
2023/12/30 16:35:53;;;;;;;4.32;1.75;;;;;;;6.61;100.00;98285.53;15270297;19;20041;-63
2023/12/30 16:41:17;;;;;;;4.00;1.70;;;;;;;6.61;100.00;98292.75;15257793;19;20082;-63
2023/12/30 16:46:43;;;;;;;4.45;1.80;;;;;;;6.57;100.00;98286.81;15284250;19;20018;-63
2023/12/30 16:52:11;;;;;;;3.88;1.80;;;;;;;6.52;100.00;98285.56;15277048;19;20014;-63
2023/12/30 16:57:36;;;;;;;6.68;3.60;;;;;;;6.43;100.00;98282.69;15288582;19;20017;-63
2023/12/30 17:03:00;;;;;;;6.28;4.03;;;;;;;6.32;100.00;98274.78;15275526;19;20475;-63
2023/12/30 17:08:28;;;;;;;4.90;3.25;;;;;;;6.19;100.00;98279.56;15286452;19;20085;-63
2023/12/30 17:13:54;;;;;;;4.88;1.92;;;;;;;6.04;100.00;98268.41;15279008;19;20015;-62
2023/12/30 17:19:18;;;;;;;5.55;2.70;;;;;;;6.01;100.00;98273.03;15280207;19;20018;-61
2023/12/30 17:24:46;;;;;;;4.47;2.00;;;;;;;5.97;100.00;98276.06;15279571;19;20022;-63
2023/12/30 17:30:12;;;;;;;3.67;2.03;;;;;;;5.94;100.00;98271.84;15279549;19;20038;-63
2023/12/30 17:35:44;;;;;;;5.25;2.20;;;;;;;5.86;100.00;98267.19;15281598;19;20070;-63
2023/12/30 17:41:11;;;;;;;5.33;2.03;;;;;;;5.80;100.00;98265.06;15276687;19;20022;-63
2023/12/30 17:46:36;;;;;;;5.55;2.20;;;;;;;5.83;100.00;98263.94;15279190;19;20250;-63
2023/12/30 17:52:00;;;;;;;5.15;2.53;;;;;;;5.85;100.00;98272.69;15274448;19;20019;-63
2023/12/30 17:57:28;;;;;;;3.85;1.70;;;;;;;5.94;100.00;98276.38;15281378;19;20023;-62
2023/12/30 18:02:53;;;;;;;4.35;1.67;;;;;;;6.05;100.00;98281.66;15275072;19;20406;-62
2023/12/30 18:08:18;;;;;;;3.75;1.50;;;;;;;6.13;100.00;98284.47;15282306;19;20015;-63
2023/12/30 18:13:46;;;;;;;5.07;1.50;;;;;;;6.24;100.00;98282.69;15282214;19;20018;-63
2023/12/30 18:19:12;;;;;;;4.03;1.58;;;;;;;6.29;100.00;98280.44;15277886;19;20392;-62
2023/12/30 18:24:36;;;;;;;4.47;1.80;;;;;;;6.25;100.00;98265.63;15283288;19;20018;-62
2023/12/30 18:30:04;;;;;;;5.00;1.60;;;;;;;6.17;100.00;98275.19;15277192;19;20011;-62
2023/12/30 18:35:28;;;;;;;4.40;1.73;;;;;;;6.15;100.00;98277.16;15276463;19;20026;-62
2023/12/30 18:40:53;;;;;;;5.65;1.80;;;;;;;6.11;100.00;98277.59;15273972;19;20025;-62
2023/12/30 18:46:20;;;;;;;5.25;2.30;;;;;;;6.02;100.00;98273.88;15280480;19;20024;-62
2023/12/30 18:51:45;;;;;;;5.10;2.13;;;;;;;5.96;100.00;98290.44;15269699;19;20022;-62
2023/12/30 18:57:11;;;;;;;5.40;2.30;;;;;;;5.90;100.00;98280.28;15265173;19;20014;-62
2023/12/30 19:02:40;;;;;;;5.07;2.15;;;;;;;5.78;100.00;98269.69;15270766;19;20015;-62
2023/12/30 19:08:06;;;;;;;6.30;2.50;;;;;;;5.70;100.00;98270.34;15276005;19;20019;-62
2023/12/30 19:13:31;;;;;;;4.60;2.10;;;;;;;5.65;100.00;98274.41;15268300;19;20024;-62
2023/12/30 19:18:58;;;;;;;6.97;2.40;;;;;;;5.59;100.00;98266.91;15272112;19;20014;-62
2023/12/30 19:24:23;;;;;;;4.15;2.00;;;;;;;5.54;100.00;98270.84;15279519;19;20361;-62
2023/12/30 19:29:48;;;;;;;4.50;1.80;;;;;;;5.52;100.00;98259.44;15274232;19;20039;-62
2023/12/30 19:35:15;;;;;;;5.10;1.77;;;;;;;5.52;100.00;98261.28;15272196;19;20011;-63
2023/12/30 19:40:42;;;;;;;4.50;1.60;;;;;;;5.52;100.00;98255.94;15269144;19;20620;-62
2023/12/30 19:46:08;;;;;;;4.53;1.60;;;;;;;5.50;100.00;98264.06;15274484;19;20018;-63
2023/12/30 19:51:37;;;;;;;5.32;2.00;;;;;;;5.43;100.00;98267.41;15268524;19;20018;-63
2023/12/30 19:57:01;;;;;;;4.50;2.03;;;;;;;5.32;100.00;98260.31;15273859;19;20031;-63
2023/12/30 20:02:27;;;;;;;7.40;2.13;;;;;;;5.19;100.00;98264.03;15265443;19;20014;-63
2023/12/30 20:07:54;;;;;;;5.32;2.30;;;;;;;5.13;100.00;98261.88;15277258;19;20018;-63
2023/12/30 20:13:19;;;;;;;6.53;2.17;;;;;;;5.08;100.00;98267.63;15273430;19;20606;-64
2023/12/30 20:18:44;;;;;;;4.05;2.20;;;;;;;5.02;100.00;98261.94;15271261;19;20499;-63
2023/12/30 20:24:12;;;;;;;6.28;2.10;;;;;;;4.98;100.00;98264.03;15269879;19;20010;-63
2023/12/30 20:29:37;;;;;;;5.95;2.28;;;;;;;5.01;100.00;98270.94;15277986;19;20019;-62
2023/12/30 20:35:02;;;;;;;5.88;2.10;;;;;;;5.00;100.00;98270.09;15266879;19;20023;-65
2023/12/30 20:40:29;;;;;;;4.93;1.98;;;;;;;4.96;100.00;98276.66;15265029;19;20024;-65
2023/12/30 20:45:54;;;;;;;6.25;2.10;;;;;;;4.88;100.00;98263.13;15267449;19;20021;-63
2023/12/30 20:51:19;;;;;;;3.88;1.80;;;;;;;4.85;100.00;98258.91;15267361;19;20015;-65
2023/12/30 20:56:47;;;;;;;4.97;2.08;;;;;;;4.85;100.00;98256.22;15259671;19;20021;-64
2023/12/30 21:02:14;;;;;;;4.03;1.80;;;;;;;4.86;100.00;98265.94;15268246;19;20024;-64
2023/12/30 21:07:40;;;;;;;4.95;1.70;;;;;;;4.86;100.00;98249.91;15268760;19;20015;-65
2023/12/30 21:13:07;;;;;;;4.15;1.70;;;;;;;4.86;100.00;98251.72;15266604;19;20014;-63
2023/12/30 21:18:33;;;;;;;4.20;1.70;;;;;;;4.82;100.00;98245.81;15268999;19;20015;-64
2023/12/30 21:23:58;;;;;;;6.68;1.77;;;;;;;4.77;100.00;98240.00;15269016;19;20082;-65
2023/12/30 21:29:26;;;;;;;5.82;2.00;;;;;;;4.77;100.00;98238.19;15267935;19;20511;-57
2023/12/30 21:34:50;;;;;;;3.55;1.83;;;;;;;4.79;100.00;98238.06;15277984;19;20525;-57
2023/12/30 21:40:16;;;;;;;5.95;1.90;;;;;;;4.74;100.00;98234.94;15281703;19;20553;-58
2023/12/30 21:45:44;;;;;;;5.88;1.80;;;;;;;4.68;100.00;98235.44;15284396;19;20015;-56
2023/12/30 21:51:09;;;;;;;4.78;1.83;;;;;;;4.62;100.00;98223.47;15277553;19;20014;-57
2023/12/30 21:56:34;;;;;;;4.35;1.85;;;;;;;4.59;100.00;98219.22;15281249;19;20013;-56
2023/12/30 22:02:02;;;;;;;6.78;1.67;;;;;;;4.59;100.00;98224.56;15277201;19;20025;-57
2023/12/30 22:07:26;;;;;;;7.47;1.60;;;;;;;4.61;100.00;98224.44;15284144;19;20018;-60
2023/12/30 22:12:54;;;;;;;4.97;1.60;;;;;;;4.66;100.00;98216.03;15276238;19;20030;-59
2023/12/30 22:18:22;;;;;;;4.85;1.42;;;;;;;4.72;100.00;98220.88;15277336;19;20018;-56
2023/12/30 22:23:47;;;;;;;4.00;1.40;;;;;;;4.70;100.00;98206.81;15282969;19;20077;-61
2023/12/30 22:29:11;;;;;;;3.83;1.52;;;;;;;4.65;100.00;98209.88;15279621;19;20476;-53
2023/12/30 22:34:39;;;;;;;3.88;1.55;;;;;;;4.59;100.00;98197.03;15274421;19;20035;-58
2023/12/30 22:40:03;;;;;;;3.88;1.42;;;;;;;4.53;100.00;98201.06;15281297;19;20015;-59
2023/12/30 22:45:28;;;;;;;3.20;1.42;;;;;;;4.49;100.00;98188.97;15278963;19;20014;-59
2023/12/30 22:50:55;;;;;;;6.30;1.60;;;;;;;4.44;100.00;98189.34;15277190;19;20473;-60
2023/12/30 22:56:19;;;;;;;8.52;1.70;;;;;;;4.41;100.00;98197.59;15278246;19;20010;-57
2023/12/30 23:01:44;;;;;;;5.85;1.90;;;;;;;4.38;100.00;98189.00;15276387;19;20028;-59
2023/12/30 23:07:12;;;;;;;3.70;1.63;;;;;;;4.32;100.00;98193.03;15275856;19;20078;-59
2023/12/30 23:12:37;;;;;;;5.47;1.48;;;;;;;4.23;100.00;98196.47;15272015;19;20015;-57
2023/12/30 23:18:03;;;;;;;4.05;1.50;;;;;;;4.09;100.00;98178.94;15276196;19;20019;-55
2023/12/30 23:23:30;;;;;;;5.97;1.48;;;;;;;3.98;100.00;98180.66;15279114;19;20017;-55
2023/12/30 23:28:55;;;;;;;4.80;1.60;;;;;;;3.94;100.00;98187.19;15278909;19;20016;-56
2023/12/30 23:34:20;;;;;;;3.47;1.35;;;;;;;3.93;100.00;98185.53;15276541;19;20354;-56
2023/12/30 23:40:08;;;;;;;5.53;1.48;;;;;;;3.96;100.00;98182.59;15272280;19;20591;-56
2023/12/30 23:45:32;;;;;;;3.58;1.30;;;;;;;3.97;100.00;98176.28;15276688;19;20025;-58
2023/12/30 23:50:57;;;;;;;5.22;1.23;;;;;;;3.96;100.00;98155.94;15276076;19;20082;-56
2023/12/30 23:56:24;;;;;;;3.47;1.15;;;;;;;4.04;100.00;98157.16;15271155;19;20015;-56
